createdAt,value
2023-02-15T00:00:29.537Z,13.90
2023-02-15T00:01:29.511Z,15.90
2023-02-15T00:02:29.482Z,14.50
2023-02-15T00:03:29.558Z,13.80
2023-02-15T00:04:29.461Z,15.70
2023-02-15T00:05:29.487Z,15.00
2023-02-15T00:06:29.466Z,14.80
2023-02-15T00:07:29.441Z,15.80
2023-02-15T00:08:29.444Z,15.80
2023-02-15T00:09:29.499Z,16.00
2023-02-15T00:10:29.393Z,15.70
2023-02-15T00:11:29.429Z,15.00
2023-02-15T00:12:29.416Z,15.00
2023-02-15T00:13:29.372Z,15.90
2023-02-15T00:14:29.342Z,15.30
2023-02-15T00:15:29.386Z,15.90
2023-02-15T00:16:29.409Z,16.30
2023-02-15T00:17:29.418Z,17.20
2023-02-15T00:18:29.490Z,15.50
2023-02-15T00:19:29.303Z,15.70
2023-02-15T00:20:29.357Z,15.20
2023-02-15T00:21:29.356Z,15.00
2023-02-15T00:22:29.253Z,15.50
2023-02-15T00:23:29.295Z,16.50
2023-02-15T00:24:29.251Z,15.90
2023-02-15T00:25:29.242Z,15.80
2023-02-15T00:26:29.243Z,14.20
2023-02-15T00:27:29.253Z,15.30
2023-02-15T00:28:29.221Z,15.70
2023-02-15T00:29:29.184Z,15.40
2023-02-15T00:30:29.244Z,16.30
2023-02-15T00:31:29.354Z,16.30
2023-02-15T00:32:29.142Z,14.70
2023-02-15T00:33:29.201Z,15.60
2023-02-15T00:34:29.154Z,15.60
2023-02-15T00:35:29.182Z,16.90
2023-02-15T00:36:29.097Z,16.40
2023-02-15T00:37:29.096Z,17.10
2023-02-15T00:38:29.113Z,16.60
2023-02-15T00:39:29.094Z,14.70
2023-02-15T00:40:29.057Z,16.20
2023-02-15T00:41:29.092Z,15.70
2023-02-15T00:42:29.026Z,16.50
2023-02-15T00:43:29.053Z,14.90
2023-02-15T00:44:29.085Z,16.50
2023-02-15T00:45:29.026Z,15.30
2023-02-15T00:46:29.001Z,17.60
2023-02-15T00:47:29.009Z,17.10
2023-02-15T00:48:28.974Z,16.00
2023-02-15T00:49:28.984Z,17.10
2023-02-15T00:50:29.014Z,16.00
2023-02-15T00:51:28.955Z,16.00
2023-02-15T00:52:28.918Z,16.50
2023-02-15T00:53:28.947Z,17.40
2023-02-15T00:54:29.081Z,16.30
2023-02-15T00:55:28.892Z,16.20
2023-02-15T00:56:28.862Z,16.30
2023-02-15T00:57:28.860Z,16.60
2023-02-15T00:58:28.871Z,17.00
2023-02-15T00:59:28.883Z,17.40
2023-02-15T01:00:28.885Z,16.10
2023-02-15T01:01:28.903Z,16.40
2023-02-15T01:02:28.799Z,17.10
2023-02-15T01:03:28.800Z,16.50
2023-02-15T01:04:28.850Z,15.70
2023-02-15T01:05:28.810Z,16.90
2023-02-15T01:06:28.752Z,17.90
2023-02-15T01:07:28.752Z,16.40
2023-02-15T01:08:28.790Z,17.20
2023-02-15T01:09:28.745Z,15.50
2023-02-15T01:10:28.723Z,16.70
2023-02-15T01:11:28.712Z,15.70
2023-02-15T01:12:28.729Z,16.80
2023-02-15T01:13:28.741Z,16.10
2023-02-15T01:14:28.714Z,16.00
2023-02-15T01:15:28.671Z,15.60
2023-02-15T01:16:28.747Z,16.10
2023-02-15T01:17:28.660Z,17.70
2023-02-15T01:18:28.653Z,17.70
2023-02-15T01:19:28.684Z,17.50
2023-02-15T01:20:28.638Z,16.40
2023-02-15T01:21:28.602Z,15.30
2023-02-15T01:22:28.578Z,16.50
2023-02-15T01:23:28.586Z,15.00
2023-02-15T01:24:28.626Z,17.20
2023-02-15T01:25:28.568Z,16.80
2023-02-15T01:26:28.575Z,16.40
2023-02-15T01:27:28.550Z,15.90
2023-02-15T01:28:28.510Z,18.00
2023-02-15T01:29:28.538Z,18.50
2023-02-15T01:30:28.516Z,17.00
2023-02-15T01:31:28.552Z,15.80
2023-02-15T01:32:28.474Z,17.60
2023-02-15T01:33:28.508Z,17.90
2023-02-15T01:34:28.439Z,15.90
2023-02-15T01:35:28.424Z,18.00
2023-02-15T01:36:28.449Z,17.10
2023-02-15T01:37:28.428Z,17.30
2023-02-15T01:38:28.446Z,15.90
2023-02-15T01:39:28.420Z,19.00
2023-02-15T01:40:28.408Z,17.10
2023-02-15T01:41:28.368Z,17.80
2023-02-15T01:42:28.388Z,18.00
2023-02-15T01:43:28.351Z,18.60
2023-02-15T01:44:28.342Z,19.00
2023-02-15T01:45:28.301Z,18.10
2023-02-15T01:46:28.369Z,17.00
2023-02-15T01:47:28.292Z,16.80
2023-02-15T01:48:28.350Z,16.60
2023-02-15T01:49:28.292Z,17.10
2023-02-15T01:50:28.347Z,17.70
2023-02-15T01:51:28.240Z,16.10
2023-02-15T01:52:28.282Z,16.20
2023-02-15T01:53:28.240Z,16.30
2023-02-15T01:54:28.219Z,17.10
2023-02-15T01:55:28.198Z,18.50
2023-02-15T01:56:28.227Z,15.50
2023-02-15T01:57:28.195Z,16.10
2023-02-15T01:58:28.197Z,16.10
2023-02-15T01:59:28.163Z,16.50
2023-02-15T02:00:28.182Z,15.90
2023-02-15T02:01:28.201Z,17.20
2023-02-15T02:02:28.176Z,17.40
2023-02-15T02:03:28.101Z,16.60
2023-02-15T02:04:28.098Z,18.10
2023-02-15T02:05:28.125Z,17.80
2023-02-15T02:06:28.105Z,17.10
2023-02-15T02:07:28.051Z,18.70
2023-02-15T02:08:28.074Z,16.30
2023-02-15T02:09:28.046Z,16.00
2023-02-15T02:10:28.079Z,16.40
2023-02-15T02:11:28.013Z,18.90
2023-02-15T02:12:28.001Z,16.70
2023-02-15T02:13:28.006Z,16.90
2023-02-15T02:14:28.079Z,17.60
2023-02-15T02:15:28.008Z,17.60
2023-02-15T02:16:27.960Z,16.60
2023-02-15T02:17:27.968Z,16.90
2023-02-15T02:18:27.932Z,17.30
2023-02-15T02:19:27.928Z,17.30
2023-02-15T02:20:27.948Z,15.80
2023-02-15T02:21:27.894Z,16.60
2023-02-15T02:22:27.897Z,16.40
2023-02-15T02:23:27.917Z,17.50
2023-02-15T02:24:27.890Z,16.60
2023-02-15T02:25:27.892Z,18.80
2023-02-15T02:26:27.860Z,17.00
2023-02-15T02:27:27.840Z,16.10
2023-02-15T02:28:27.813Z,17.80
2023-02-15T02:29:27.879Z,16.70
2023-02-15T02:30:28.030Z,15.90
2023-02-15T02:31:27.895Z,17.20
2023-02-15T02:32:27.793Z,18.20
2023-02-15T02:33:27.799Z,17.00
2023-02-15T02:34:27.771Z,17.20
2023-02-15T02:35:27.774Z,16.70
2023-02-15T02:36:27.740Z,16.50
2023-02-15T02:37:27.737Z,17.50
2023-02-15T02:38:27.713Z,16.10
2023-02-15T02:39:27.719Z,17.20
2023-02-15T02:40:27.758Z,15.60
2023-02-15T02:41:27.706Z,16.60
2023-02-15T02:42:27.674Z,16.10
2023-02-15T02:43:27.681Z,18.90
2023-02-15T02:44:27.680Z,17.20
2023-02-15T02:45:27.623Z,15.70
2023-02-15T02:46:27.698Z,16.70
2023-02-15T02:47:27.640Z,17.10
2023-02-15T02:48:27.601Z,17.20
2023-02-15T02:49:27.735Z,16.70
2023-02-15T02:50:27.558Z,17.30
2023-02-15T02:51:27.557Z,18.60
2023-02-15T02:52:27.526Z,18.30
2023-02-15T02:53:27.566Z,18.10
2023-02-15T02:54:27.561Z,17.50
2023-02-15T02:55:27.544Z,18.40
2023-02-15T02:56:27.485Z,18.70
2023-02-15T02:57:27.528Z,18.60
2023-02-15T02:58:27.526Z,17.30
2023-02-15T02:59:27.503Z,17.90
2023-02-15T03:00:27.467Z,16.40
2023-02-15T03:01:27.496Z,18.00
2023-02-15T03:02:27.480Z,17.60
2023-02-15T03:03:27.419Z,16.10
2023-02-15T03:04:27.548Z,19.10
2023-02-15T03:05:27.519Z,19.30
2023-02-15T03:06:27.404Z,16.90
2023-02-15T03:07:27.397Z,17.00
2023-02-15T03:08:27.380Z,17.50
2023-02-15T03:09:27.376Z,18.30
2023-02-15T03:10:27.357Z,17.60
2023-02-15T03:11:27.367Z,18.20
2023-02-15T03:12:27.303Z,17.00
2023-02-15T03:13:27.367Z,18.10
2023-02-15T03:14:27.308Z,18.50
2023-02-15T03:15:27.285Z,18.00
2023-02-15T03:16:27.314Z,18.20
2023-02-15T03:17:27.321Z,19.50
2023-02-15T03:18:27.262Z,17.60
2023-02-15T03:19:27.241Z,18.50
2023-02-15T03:20:27.269Z,18.00
2023-02-15T03:21:27.250Z,18.20
2023-02-15T03:22:27.230Z,18.70
2023-02-15T03:23:27.259Z,17.90
2023-02-15T03:24:27.439Z,18.70
2023-02-15T03:25:27.200Z,18.30
2023-02-15T03:26:27.173Z,19.40
2023-02-15T03:27:27.202Z,20.30
2023-02-15T03:28:27.154Z,20.50
2023-02-15T03:29:27.173Z,19.30
2023-02-15T03:30:27.213Z,19.50
2023-02-15T03:31:27.190Z,18.00
2023-02-15T03:32:27.098Z,19.00
2023-02-15T03:33:27.077Z,17.30
2023-02-15T03:34:27.060Z,18.70
2023-02-15T03:35:27.058Z,18.40
2023-02-15T03:36:27.033Z,19.40
2023-02-15T03:37:27.029Z,19.40
2023-02-15T03:38:27.088Z,18.00
2023-02-15T03:39:27.008Z,20.70
2023-02-15T03:40:26.993Z,19.70
2023-02-15T03:41:27.003Z,19.30
2023-02-15T03:42:26.972Z,17.90
2023-02-15T03:43:26.969Z,19.20
2023-02-15T03:44:27.020Z,20.60
2023-02-15T03:45:26.968Z,19.40
2023-02-15T03:46:26.954Z,18.80
2023-02-15T03:47:26.918Z,18.00
2023-02-15T03:48:26.919Z,20.60
2023-02-15T03:49:26.892Z,17.90
2023-02-15T03:50:29.571Z,17.90
2023-02-15T03:51:26.945Z,18.90
2023-02-15T03:52:26.848Z,18.40
2023-02-15T03:53:26.911Z,18.30
2023-02-15T03:54:26.819Z,18.50
2023-02-15T03:55:26.848Z,18.00
2023-02-15T03:56:26.826Z,19.80
2023-02-15T03:57:26.844Z,19.00
2023-02-15T03:58:26.828Z,19.20
2023-02-15T03:59:26.780Z,18.00
2023-02-15T04:00:26.785Z,18.60
2023-02-15T04:01:26.851Z,18.80
2023-02-15T04:02:26.776Z,19.50
2023-02-15T04:03:26.730Z,18.90
2023-02-15T04:04:26.709Z,18.50
2023-02-15T04:05:26.711Z,19.50
2023-02-15T04:06:26.720Z,17.60
2023-02-15T04:07:26.710Z,18.70
2023-02-15T04:08:26.662Z,19.00
2023-02-15T04:09:26.716Z,19.40
2023-02-15T04:10:26.642Z,17.00
2023-02-15T04:11:26.642Z,18.20
2023-02-15T04:12:26.691Z,18.60
2023-02-15T04:13:26.638Z,19.60
2023-02-15T04:14:26.605Z,19.10
2023-02-15T04:15:26.629Z,20.00
2023-02-15T04:16:26.641Z,19.70
2023-02-15T04:17:34.561Z,19.40
2023-02-15T04:18:26.551Z,18.70
2023-02-15T04:19:26.575Z,19.60
2023-02-15T04:20:26.576Z,18.00
2023-02-15T04:21:26.525Z,20.40
2023-02-15T04:22:26.534Z,19.60
2023-02-15T04:23:26.525Z,18.80
2023-02-15T04:24:26.473Z,19.40
2023-02-15T04:25:26.495Z,19.60
2023-02-15T04:26:26.478Z,19.40
2023-02-15T04:27:26.477Z,18.80
2023-02-15T04:28:26.452Z,20.50
2023-02-15T04:29:26.454Z,19.00
2023-02-15T04:30:26.452Z,21.90
2023-02-15T04:31:26.481Z,18.60
2023-02-15T04:32:26.425Z,19.50
2023-02-15T04:33:26.413Z,21.60
2023-02-15T04:34:26.388Z,20.00
2023-02-15T04:35:26.385Z,20.40
2023-02-15T04:36:26.356Z,19.20
2023-02-15T04:37:26.338Z,20.50
2023-02-15T04:38:26.335Z,19.10
2023-02-15T04:39:26.364Z,20.00
2023-02-15T04:40:26.314Z,20.20
2023-02-15T04:41:26.298Z,20.10
2023-02-15T04:42:26.268Z,20.80
2023-02-15T04:43:26.272Z,19.30
2023-02-15T04:44:26.291Z,19.70
2023-02-15T04:45:26.286Z,20.60
2023-02-15T04:46:26.245Z,20.10
2023-02-15T04:47:26.247Z,20.20
2023-02-15T04:48:26.225Z,20.30
2023-02-15T04:49:26.245Z,19.60
2023-02-15T04:50:26.194Z,19.70
2023-02-15T04:51:26.195Z,19.50
2023-02-15T04:52:26.197Z,19.60
2023-02-15T04:53:26.163Z,19.60
2023-02-15T04:54:26.131Z,19.40
2023-02-15T04:55:26.155Z,20.40
2023-02-15T04:56:26.137Z,20.10
2023-02-15T04:57:26.140Z,19.10
2023-02-15T04:58:26.078Z,21.60
2023-02-15T04:59:26.139Z,21.90
2023-02-15T05:00:26.078Z,20.50
2023-02-15T05:01:26.136Z,21.20
2023-02-15T05:02:26.094Z,20.10
2023-02-15T05:03:26.045Z,19.70
2023-02-15T05:04:26.088Z,19.60
2023-02-15T05:05:26.026Z,19.00
2023-02-15T05:06:25.984Z,20.50
2023-02-15T05:07:26.021Z,18.80
2023-02-15T05:08:25.968Z,21.30
2023-02-15T05:09:25.971Z,20.80
2023-02-15T05:10:26.008Z,19.70
2023-02-15T05:11:25.953Z,20.30
2023-02-15T05:12:25.920Z,19.40
2023-02-15T05:13:25.925Z,19.70
2023-02-15T05:14:25.919Z,20.50
2023-02-15T05:15:25.902Z,21.30
2023-02-15T05:16:25.939Z,22.50
2023-02-15T05:17:25.950Z,20.00
2023-02-15T05:18:25.852Z,21.50
2023-02-15T05:19:25.883Z,18.40
2023-02-15T05:20:25.823Z,21.20
2023-02-15T05:21:25.832Z,20.70
2023-02-15T05:22:25.833Z,19.80
2023-02-15T05:23:25.863Z,20.20
2023-02-15T05:24:25.797Z,20.10
2023-02-15T05:25:25.784Z,20.20
2023-02-15T05:26:25.760Z,20.60
2023-02-15T05:27:25.767Z,20.80
2023-02-15T05:28:25.801Z,21.10
2023-02-15T05:29:25.741Z,20.30
2023-02-15T05:30:25.856Z,22.30
2023-02-15T05:31:25.904Z,20.90
2023-02-15T05:32:25.808Z,22.70
2023-02-15T05:33:25.730Z,20.80
2023-02-15T05:34:25.700Z,21.80
2023-02-15T05:35:25.680Z,21.30
2023-02-15T05:36:25.704Z,21.30
2023-02-15T05:37:25.678Z,20.80
2023-02-15T05:38:25.641Z,21.10
2023-02-15T05:39:25.657Z,21.70
2023-02-15T05:40:25.637Z,20.60
2023-02-15T05:41:25.603Z,22.60
2023-02-15T05:42:25.582Z,19.50
2023-02-15T05:43:25.604Z,20.90
2023-02-15T05:44:25.555Z,20.90
2023-02-15T05:45:25.564Z,20.60
2023-02-15T05:46:25.596Z,22.00
2023-02-15T05:47:25.532Z,21.30
2023-02-15T05:48:25.572Z,22.30
2023-02-15T05:49:25.514Z,21.30
2023-02-15T05:50:25.493Z,22.10
2023-02-15T05:51:25.517Z,20.20
2023-02-15T05:52:25.468Z,21.90
2023-02-15T05:53:25.484Z,22.30
2023-02-15T05:54:25.445Z,21.50
2023-02-15T05:55:25.463Z,20.30
2023-02-15T05:56:25.426Z,23.10
2023-02-15T05:57:25.444Z,22.30
2023-02-15T05:58:25.724Z,20.90
2023-02-15T05:59:25.426Z,21.60
2023-02-15T06:00:25.379Z,21.50
2023-02-15T06:01:25.402Z,21.50
2023-02-15T06:02:25.469Z,21.40
2023-02-15T06:03:25.403Z,22.40
2023-02-15T06:04:25.356Z,23.60
2023-02-15T06:05:25.359Z,22.60
2023-02-15T06:06:25.313Z,22.40
2023-02-15T06:07:25.308Z,21.80
2023-02-15T06:08:25.283Z,22.70
2023-02-15T06:09:25.296Z,23.40
2023-02-15T06:10:25.308Z,21.30
2023-02-15T06:11:25.263Z,22.00
2023-02-15T06:12:25.284Z,23.40
2023-02-15T06:13:25.248Z,21.70
2023-02-15T06:14:25.242Z,22.80
2023-02-15T06:15:25.239Z,23.10
2023-02-15T06:16:25.216Z,22.90
2023-02-15T06:17:25.245Z,22.10
2023-02-15T06:18:25.169Z,22.80
2023-02-15T06:19:25.172Z,22.30
2023-02-15T06:20:25.148Z,20.70
2023-02-15T06:21:25.197Z,21.90
2023-02-15T06:22:25.184Z,22.50
2023-02-15T06:23:25.150Z,21.90
2023-02-15T06:24:25.147Z,22.80
2023-02-15T06:25:25.099Z,22.40
2023-02-15T06:26:25.080Z,21.20
2023-02-15T06:27:25.168Z,23.20
2023-02-15T06:28:25.086Z,21.80
2023-02-15T06:29:25.089Z,24.30
2023-02-15T06:30:25.123Z,24.20
2023-02-15T06:31:25.129Z,22.50
2023-02-15T06:32:25.062Z,22.60
2023-02-15T06:33:25.044Z,22.60
2023-02-15T06:34:24.988Z,21.90
2023-02-15T06:35:25.015Z,23.80
2023-02-15T06:36:24.970Z,21.10
2023-02-15T06:37:24.980Z,21.90
2023-02-15T06:38:24.962Z,25.30
2023-02-15T06:39:24.947Z,22.70
2023-02-15T06:40:24.967Z,23.00
2023-02-15T06:41:24.906Z,22.40
2023-02-15T06:42:24.957Z,21.90
2023-02-15T06:43:24.905Z,22.20
2023-02-15T06:44:24.908Z,22.80
2023-02-15T06:45:24.859Z,22.10
2023-02-15T06:46:24.964Z,23.70
2023-02-15T06:47:24.868Z,22.00
2023-02-15T06:48:24.871Z,22.00
2023-02-15T06:49:24.811Z,22.40
2023-02-15T06:50:24.834Z,23.10
2023-02-15T06:51:24.826Z,24.90
2023-02-15T06:52:24.839Z,22.60
2023-02-15T06:53:24.769Z,22.30
2023-02-15T06:54:24.795Z,24.80
2023-02-15T06:55:24.746Z,23.00
2023-02-15T06:56:24.743Z,23.00
2023-02-15T06:57:24.783Z,23.00
2023-02-15T06:58:24.723Z,22.00
2023-02-15T06:59:24.713Z,22.90
2023-02-15T07:00:24.730Z,22.70
2023-02-15T07:01:24.704Z,22.50
2023-02-15T07:02:24.718Z,22.60
2023-02-15T07:03:24.678Z,20.30
2023-02-15T07:04:24.750Z,21.50
2023-02-15T07:05:24.620Z,21.10
2023-02-15T07:06:24.648Z,21.10
2023-02-15T07:07:24.629Z,23.30
2023-02-15T07:08:24.600Z,22.70
2023-02-15T07:09:24.614Z,22.40
2023-02-15T07:10:24.604Z,21.90
2023-02-15T07:11:24.570Z,20.90
2023-02-15T07:12:24.576Z,20.70
2023-02-15T07:13:24.555Z,21.30
2023-02-15T07:14:24.602Z,21.40
2023-02-15T07:15:24.514Z,21.90
2023-02-15T07:16:24.546Z,21.40
2023-02-15T07:17:35.534Z,22.00
2023-02-15T07:18:25.605Z,20.50
2023-02-15T07:19:24.554Z,21.30
2023-02-15T07:20:24.457Z,20.70
2023-02-15T07:21:24.438Z,23.70
2023-02-15T07:22:24.457Z,21.00
2023-02-15T07:23:24.410Z,22.40
2023-02-15T07:24:24.441Z,22.00
2023-02-15T07:25:24.437Z,19.80
2023-02-15T07:26:25.315Z,21.90
2023-02-15T07:27:24.413Z,22.60
2023-02-15T07:28:24.377Z,19.10
2023-02-15T07:29:24.367Z,20.80
2023-02-15T07:30:24.445Z,21.50
2023-02-15T07:31:24.349Z,21.60
2023-02-15T07:32:24.401Z,23.20
2023-02-15T07:33:24.298Z,20.30
2023-02-15T07:34:24.333Z,21.60
2023-02-15T07:35:24.303Z,23.60
2023-02-15T07:36:24.298Z,19.30
2023-02-15T07:37:24.279Z,22.60
2023-02-15T07:38:24.287Z,22.00
2023-02-15T07:39:24.235Z,19.20
2023-02-15T07:40:24.267Z,21.10
2023-02-15T07:41:24.259Z,19.90
2023-02-15T07:42:24.236Z,21.20
2023-02-15T07:43:24.182Z,20.80
2023-02-15T07:44:24.184Z,21.70
2023-02-15T07:45:24.188Z,19.70
2023-02-15T07:46:24.251Z,20.90
2023-02-15T07:47:24.132Z,22.40
2023-02-15T07:48:25.032Z,21.20
2023-02-15T07:49:24.112Z,19.90
2023-02-15T07:50:24.126Z,23.10
2023-02-15T07:51:24.139Z,21.40
2023-02-15T07:52:24.091Z,20.90
2023-02-15T07:53:24.090Z,19.40
2023-02-15T07:54:24.076Z,21.70
2023-02-15T07:55:24.070Z,20.60
2023-02-15T07:56:24.093Z,18.60
2023-02-15T07:57:24.023Z,21.10
2023-02-15T07:58:24.032Z,19.70
2023-02-15T07:59:24.043Z,21.20
2023-02-15T08:00:24.005Z,19.40
2023-02-15T08:01:24.033Z,19.30
2023-02-15T08:02:23.985Z,20.20
2023-02-15T08:03:24.136Z,20.30
2023-02-15T08:04:23.983Z,20.90
2023-02-15T08:05:23.970Z,20.10
2023-02-15T08:06:23.934Z,21.20
2023-02-15T08:07:23.915Z,20.00
2023-02-15T08:08:23.925Z,21.40
2023-02-15T08:09:23.884Z,19.00
2023-02-15T08:10:24.499Z,21.60
2023-02-15T08:11:23.894Z,21.30
2023-02-15T08:12:23.865Z,21.10
2023-02-15T08:13:23.846Z,22.00
2023-02-15T08:14:23.875Z,20.20
2023-02-15T08:15:23.881Z,19.70
2023-02-15T08:16:23.917Z,20.40
2023-02-15T08:17:23.800Z,21.60
2023-02-15T08:18:23.828Z,20.80
2023-02-15T08:19:23.827Z,19.20
2023-02-15T08:20:23.915Z,20.10
2023-02-15T08:21:24.988Z,22.10
2023-02-15T08:22:23.798Z,19.50
2023-02-15T08:23:23.758Z,18.60
2023-02-15T08:24:23.930Z,18.10
2023-02-15T08:25:23.730Z,19.30
2023-02-15T08:26:23.965Z,19.20
2023-02-15T08:27:23.684Z,18.90
2023-02-15T08:28:23.717Z,17.70
2023-02-15T08:29:23.666Z,19.10
2023-02-15T08:30:23.773Z,18.30
2023-02-15T08:31:23.707Z,18.10
2023-02-15T08:32:23.768Z,17.50
2023-02-15T08:33:23.651Z,17.10
2023-02-15T08:34:23.656Z,21.40
2023-02-15T08:35:23.625Z,17.30
2023-02-15T08:36:23.629Z,17.80
2023-02-15T08:37:23.598Z,17.10
2023-02-15T08:38:23.604Z,18.30
2023-02-15T08:39:23.567Z,16.00
2023-02-15T08:40:23.575Z,16.40
2023-02-15T08:41:23.553Z,18.10
2023-02-15T08:42:23.528Z,17.20
2023-02-15T08:43:23.535Z,16.40
2023-02-15T08:44:23.565Z,17.00
2023-02-15T08:45:23.505Z,15.70
2023-02-15T08:46:23.516Z,17.10
2023-02-15T08:47:23.463Z,15.50
2023-02-15T08:48:23.492Z,16.90
2023-02-15T08:49:23.498Z,17.40
2023-02-15T08:50:23.440Z,16.80
2023-02-15T08:51:23.418Z,16.00
2023-02-15T08:52:23.427Z,15.80
2023-02-15T08:53:23.416Z,16.10
2023-02-15T08:54:23.455Z,16.20
2023-02-15T08:55:23.394Z,16.70
2023-02-15T08:56:23.370Z,16.20
2023-02-15T08:57:23.338Z,16.40
2023-02-15T08:58:23.377Z,17.90
2023-02-15T08:59:23.393Z,16.10
2023-02-15T09:00:23.329Z,16.30
2023-02-15T09:01:23.358Z,14.80
2023-02-15T09:02:23.355Z,17.40
2023-02-15T09:03:23.440Z,21.60
2023-02-15T09:04:23.279Z,17.70
2023-02-15T09:05:23.260Z,19.40
2023-02-15T09:06:23.288Z,17.70
2023-02-15T09:07:23.290Z,16.10
2023-02-15T09:08:23.256Z,14.90
2023-02-15T09:09:23.273Z,15.90
2023-02-15T09:10:23.235Z,15.80
2023-02-15T09:11:23.213Z,16.30
2023-02-15T09:12:23.189Z,14.90
2023-02-15T09:13:23.224Z,13.70
2023-02-15T09:14:23.219Z,15.60
2023-02-15T09:15:23.170Z,15.90
2023-02-15T09:16:23.216Z,15.30
2023-02-15T09:17:23.149Z,14.80
2023-02-15T09:18:23.138Z,15.60
2023-02-15T09:19:23.124Z,15.90
2023-02-15T09:20:23.099Z,13.90
2023-02-15T09:21:23.098Z,13.60
2023-02-15T09:22:23.098Z,15.30
2023-02-15T09:23:27.332Z,13.60
2023-02-15T09:24:23.041Z,15.50
2023-02-15T09:25:23.021Z,15.10
2023-02-15T09:26:23.022Z,13.80
2023-02-15T09:27:23.004Z,16.10
2023-02-15T09:28:23.078Z,15.00
2023-02-15T09:29:22.998Z,14.10
2023-02-15T09:30:23.099Z,15.50
2023-02-15T09:31:23.055Z,13.80
2023-02-15T09:32:22.959Z,13.60
2023-02-15T09:33:22.950Z,13.10
2023-02-15T09:34:22.950Z,13.10
2023-02-15T09:35:22.928Z,14.20
2023-02-15T09:36:22.925Z,12.80
2023-02-15T09:37:22.923Z,13.40
2023-02-15T09:38:22.881Z,13.60
2023-02-15T09:39:22.888Z,13.50
2023-02-15T09:40:22.880Z,18.20
2023-02-15T09:41:22.833Z,13.40
2023-02-15T09:42:22.859Z,18.40
2023-02-15T09:43:22.830Z,26.90
2023-02-15T09:44:22.863Z,13.00
2023-02-15T09:45:22.785Z,14.00
2023-02-15T09:46:22.847Z,13.40
2023-02-15T09:47:22.795Z,13.70
2023-02-15T09:48:22.799Z,13.20
2023-02-15T09:49:22.762Z,12.90
2023-02-15T09:50:22.744Z,14.60
2023-02-15T09:51:29.948Z,12.10
2023-02-15T09:52:22.735Z,13.10
2023-02-15T09:53:22.750Z,14.20
2023-02-15T09:54:22.749Z,12.90
2023-02-15T09:55:22.679Z,13.00
2023-02-15T09:56:22.704Z,11.70
2023-02-15T09:57:22.643Z,13.20
2023-02-15T09:58:22.717Z,14.00
2023-02-15T09:59:22.649Z,12.70
2023-02-15T10:00:23.424Z,12.40
2023-02-15T10:01:22.718Z,13.20
2023-02-15T10:02:22.632Z,12.50
2023-02-15T10:03:22.603Z,11.90
2023-02-15T10:04:22.609Z,16.60
2023-02-15T10:05:22.585Z,16.60
2023-02-15T10:06:22.614Z,16.10
2023-02-15T10:07:22.554Z,14.90
2023-02-15T10:08:22.559Z,13.50
2023-02-15T10:09:22.536Z,13.40
2023-02-15T10:10:22.566Z,14.50
2023-02-15T10:11:22.553Z,13.00
2023-02-15T10:12:22.498Z,12.90
2023-02-15T10:13:22.494Z,12.90
2023-02-15T10:14:22.461Z,13.60
2023-02-15T10:15:22.460Z,11.50
2023-02-15T10:16:22.476Z,14.00
2023-02-15T10:17:22.581Z,13.40
2023-02-15T10:18:22.432Z,13.60
2023-02-15T10:19:22.402Z,12.10
2023-02-15T10:20:22.447Z,11.90
2023-02-15T10:21:22.374Z,12.60
2023-02-15T10:22:22.400Z,13.80
2023-02-15T10:23:22.383Z,12.40
2023-02-15T10:24:22.382Z,12.10
2023-02-15T10:25:22.353Z,13.20
2023-02-15T10:26:22.378Z,13.70
2023-02-15T10:27:22.344Z,12.20
2023-02-15T10:28:22.358Z,12.50
2023-02-15T10:29:22.312Z,11.50
2023-02-15T10:30:22.426Z,12.30
2023-02-15T10:31:22.434Z,12.30
2023-02-15T10:32:22.332Z,11.20
2023-02-15T10:33:22.260Z,12.70
2023-02-15T10:34:22.242Z,12.20
2023-02-15T10:35:22.215Z,12.70
2023-02-15T10:36:22.272Z,13.60
2023-02-15T10:37:22.199Z,13.60
2023-02-15T10:38:22.237Z,11.40
2023-02-15T10:39:22.183Z,11.10
2023-02-15T10:40:22.192Z,11.60
2023-02-15T10:41:22.333Z,11.50
2023-02-15T10:42:22.174Z,12.00
2023-02-15T10:43:22.116Z,11.90
2023-02-15T10:44:22.150Z,11.20
2023-02-15T10:45:22.181Z,12.10
2023-02-15T10:46:22.153Z,12.70
2023-02-15T10:47:22.095Z,10.90
2023-02-15T10:48:22.067Z,12.00
2023-02-15T10:49:22.078Z,13.10
2023-02-15T10:50:22.074Z,12.30
2023-02-15T10:51:22.076Z,17.80
2023-02-15T10:52:24.231Z,15.40
2023-02-15T10:53:22.019Z,13.40
2023-02-15T10:54:22.019Z,12.80
2023-02-15T10:55:21.990Z,15.80
2023-02-15T10:56:21.974Z,13.90
2023-02-15T10:57:21.972Z,11.40
2023-02-15T10:58:21.981Z,12.60
2023-02-15T10:59:21.967Z,10.40
2023-02-15T11:00:21.948Z,9.40
2023-02-15T11:01:21.959Z,9.20
2023-02-15T11:02:21.919Z,9.80
2023-02-15T11:03:21.901Z,9.60
2023-02-15T11:04:21.896Z,9.30
2023-02-15T11:05:21.970Z,8.30
2023-02-15T11:06:21.852Z,9.00
2023-02-15T11:07:21.898Z,10.90
2023-02-15T11:08:21.824Z,9.40
2023-02-15T11:09:21.874Z,10.00
2023-02-15T11:10:21.866Z,9.80
2023-02-15T11:11:21.870Z,9.00
2023-02-15T11:12:21.812Z,11.20
2023-02-15T11:13:21.799Z,13.90
2023-02-15T11:14:21.754Z,8.00
2023-02-15T11:15:21.766Z,10.10
2023-02-15T11:16:21.885Z,9.30
2023-02-15T11:17:21.735Z,9.50
2023-02-15T11:18:21.740Z,8.00
2023-02-15T11:19:21.711Z,8.20
2023-02-15T11:20:21.686Z,9.90
2023-02-15T11:21:21.774Z,8.50
2023-02-15T11:22:21.723Z,8.90
2023-02-15T11:23:21.676Z,8.50
2023-02-15T11:24:21.679Z,8.10
2023-02-15T11:25:21.778Z,8.10
2023-02-15T11:26:21.795Z,8.80
2023-02-15T11:27:21.742Z,8.70
2023-02-15T11:28:21.608Z,7.60
2023-02-15T11:29:21.599Z,9.10
2023-02-15T11:30:21.605Z,7.60
2023-02-15T11:31:21.649Z,8.50
2023-02-15T11:32:21.663Z,10.70
2023-02-15T11:33:21.562Z,8.40
2023-02-15T11:34:21.575Z,9.40
2023-02-15T11:35:21.531Z,7.40
2023-02-15T11:36:21.540Z,9.40
2023-02-15T11:37:21.544Z,7.40
2023-02-15T11:38:21.666Z,9.30
2023-02-15T11:39:21.507Z,7.70
2023-02-15T11:40:21.477Z,8.80
2023-02-15T11:41:21.483Z,9.10
2023-02-15T11:42:21.492Z,8.80
2023-02-15T11:43:21.459Z,6.80
2023-02-15T11:44:21.456Z,9.70
2023-02-15T11:45:21.429Z,9.30
2023-02-15T11:46:21.448Z,9.80
2023-02-15T11:47:21.414Z,10.20
2023-02-15T11:48:21.405Z,8.40
2023-02-15T11:49:21.366Z,7.20
2023-02-15T11:50:21.374Z,7.90
2023-02-15T11:51:23.748Z,7.20
2023-02-15T11:52:21.339Z,9.20
2023-02-15T11:53:21.314Z,7.90
2023-02-15T11:54:21.297Z,7.60
2023-02-15T11:55:21.330Z,9.00
2023-02-15T11:56:21.329Z,9.50
2023-02-15T11:57:23.080Z,10.70
2023-02-15T11:58:21.270Z,8.60
2023-02-15T11:59:21.267Z,8.70
2023-02-15T12:00:21.239Z,10.10
2023-02-15T12:01:21.282Z,15.60
2023-02-15T12:02:21.269Z,11.90
2023-02-15T12:03:23.460Z,10.60
2023-02-15T12:04:21.264Z,10.30
2023-02-15T12:05:21.178Z,8.10
2023-02-15T12:06:21.242Z,9.10
2023-02-15T12:07:21.196Z,7.20
2023-02-15T12:08:21.197Z,8.60
2023-02-15T12:09:23.452Z,11.00
2023-02-15T12:10:21.136Z,9.40
2023-02-15T12:11:21.130Z,8.00
2023-02-15T12:12:21.078Z,7.70
2023-02-15T12:13:21.079Z,9.50
2023-02-15T12:14:21.086Z,9.30
2023-02-15T12:15:21.085Z,10.50
2023-02-15T12:16:21.070Z,8.50
2023-02-15T12:17:21.069Z,8.80
2023-02-15T12:18:21.010Z,8.70
2023-02-15T12:19:21.021Z,10.80
2023-02-15T12:20:21.024Z,9.20
2023-02-15T12:21:21.058Z,8.00
2023-02-15T12:22:20.989Z,8.80
2023-02-15T12:23:20.988Z,9.30
2023-02-15T12:24:20.968Z,15.00
2023-02-15T12:25:20.987Z,8.80
2023-02-15T12:26:21.067Z,10.80
2023-02-15T12:27:20.939Z,9.30
2023-02-15T12:28:20.919Z,8.50
2023-02-15T12:29:20.918Z,7.80
2023-02-15T12:30:20.967Z,7.40
2023-02-15T12:31:21.011Z,8.10
2023-02-15T12:32:21.074Z,7.70
2023-02-15T12:33:20.872Z,7.60
2023-02-15T12:34:20.827Z,7.50
2023-02-15T12:35:20.852Z,8.60
2023-02-15T12:36:20.836Z,8.70
2023-02-15T12:37:20.833Z,9.20
2023-02-15T12:38:20.780Z,8.40
2023-02-15T12:39:20.824Z,6.40
2023-02-15T12:40:20.784Z,6.90
2023-02-15T12:41:20.770Z,6.80
2023-02-15T12:42:20.773Z,7.10
2023-02-15T12:43:20.736Z,7.60
2023-02-15T12:44:20.718Z,10.10
2023-02-15T12:45:20.712Z,8.10
2023-02-15T12:46:20.740Z,7.80
2023-02-15T12:47:20.720Z,7.20
2023-02-15T12:48:20.702Z,8.10
2023-02-15T12:49:21.114Z,9.20
2023-02-15T12:50:20.640Z,8.50
2023-02-15T12:51:20.640Z,8.30
2023-02-15T12:52:20.668Z,7.30
2023-02-15T12:53:20.623Z,7.30
2023-02-15T12:54:23.482Z,7.50
2023-02-15T12:55:20.591Z,8.80